sensor_id;sensor_type;location;lat;lon;timestamp;P1;durP1;ratioP1;P2;durP2;ratioP2
64875;SDS011;51369;49.862;9.908;2023-01-10T00:00:24;3.38;;;1.35;;
64875;SDS011;51369;49.862;9.908;2023-01-10T00:02:51;7.30;;;1.40;;
64875;SDS011;51369;49.862;9.908;2023-01-10T00:05:17;3.78;;;1.02;;
64875;SDS011;51369;49.862;9.908;2023-01-10T00:07:43;4.13;;;1.20;;
64875;SDS011;51369;49.862;9.908;2023-01-10T00:10:09;2.45;;;1.23;;
64875;SDS011;51369;49.862;9.908;2023-01-10T00:12:35;1.13;;;1.02;;
64875;SDS011;51369;49.862;9.908;2023-01-10T00:15:20;3.03;;;1.10;;
64875;SDS011;51369;49.862;9.908;2023-01-10T00:17:45;2.95;;;1.42;;
64875;SDS011;51369;49.862;9.908;2023-01-10T00:20:11;2.38;;;1.20;;
64875;SDS011;51369;49.862;9.908;2023-01-10T00:22:36;2.90;;;1.27;;
64875;SDS011;51369;49.862;9.908;2023-01-10T00:25:02;4.80;;;1.35;;
64875;SDS011;51369;49.862;9.908;2023-01-10T00:27:28;1.48;;;1.25;;
64875;SDS011;51369;49.862;9.908;2023-01-10T00:29:53;2.67;;;1.20;;
64875;SDS011;51369;49.862;9.908;2023-01-10T00:32:20;3.58;;;1.25;;
64875;SDS011;51369;49.862;9.908;2023-01-10T00:34:46;6.57;;;1.60;;
64875;SDS011;51369;49.862;9.908;2023-01-10T00:37:11;2.38;;;1.50;;
64875;SDS011;51369;49.862;9.908;2023-01-10T00:39:37;4.65;;;1.80;;
64875;SDS011;51369;49.862;9.908;2023-01-10T00:42:02;6.65;;;1.38;;
64875;SDS011;51369;49.862;9.908;2023-01-10T00:44:46;4.63;;;1.63;;
64875;SDS011;51369;49.862;9.908;2023-01-10T00:47:12;1.40;;;1.02;;
64875;SDS011;51369;49.862;9.908;2023-01-10T00:49:38;2.78;;;1.48;;
64875;SDS011;51369;49.862;9.908;2023-01-10T00:52:04;2.10;;;1.50;;
64875;SDS011;51369;49.862;9.908;2023-01-10T00:54:29;3.67;;;1.75;;
64875;SDS011;51369;49.862;9.908;2023-01-10T00:56:55;3.67;;;1.38;;
64875;SDS011;51369;49.862;9.908;2023-01-10T00:59:21;2.75;;;1.50;;
64875;SDS011;51369;49.862;9.908;2023-01-10T01:01:46;3.58;;;2.00;;
64875;SDS011;51369;49.862;9.908;2023-01-10T01:04:11;3.55;;;1.75;;
64875;SDS011;51369;49.862;9.908;2023-01-10T01:06:37;4.68;;;1.90;;
64875;SDS011;51369;49.862;9.908;2023-01-10T01:09:02;2.08;;;1.58;;
64875;SDS011;51369;49.862;9.908;2023-01-10T01:11:27;2.78;;;1.73;;
64875;SDS011;51369;49.862;9.908;2023-01-10T01:13:53;6.00;;;2.15;;
64875;SDS011;51369;49.862;9.908;2023-01-10T01:16:18;2.85;;;1.60;;
64875;SDS011;51369;49.862;9.908;2023-01-10T01:18:43;1.67;;;1.38;;
64875;SDS011;51369;49.862;9.908;2023-01-10T01:21:09;3.38;;;1.83;;
64875;SDS011;51369;49.862;9.908;2023-01-10T01:23:34;2.40;;;1.73;;
64875;SDS011;51369;49.862;9.908;2023-01-10T01:26:00;3.17;;;1.92;;
64875;SDS011;51369;49.862;9.908;2023-01-10T01:28:26;3.47;;;1.70;;
64875;SDS011;51369;49.862;9.908;2023-01-10T01:30:51;6.35;;;2.00;;
64875;SDS011;51369;49.862;9.908;2023-01-10T01:33:17;3.78;;;1.88;;
64875;SDS011;51369;49.862;9.908;2023-01-10T01:35:44;4.85;;;1.90;;
64875;SDS011;51369;49.862;9.908;2023-01-10T01:38:11;4.78;;;1.83;;
64875;SDS011;51369;49.862;9.908;2023-01-10T01:40:37;5.22;;;2.55;;
64875;SDS011;51369;49.862;9.908;2023-01-10T01:43:24;2.15;;;1.70;;
64875;SDS011;51369;49.862;9.908;2023-01-10T01:45:50;3.90;;;1.55;;
64875;SDS011;51369;49.862;9.908;2023-01-10T01:48:37;2.15;;;1.77;;
64875;SDS011;51369;49.862;9.908;2023-01-10T01:51:09;5.95;;;1.70;;
64875;SDS011;51369;49.862;9.908;2023-01-10T01:53:44;4.20;;;2.10;;
64875;SDS011;51369;49.862;9.908;2023-01-10T01:56:23;2.70;;;1.80;;
64875;SDS011;51369;49.862;9.908;2023-01-10T01:58:58;3.40;;;2.00;;
64875;SDS011;51369;49.862;9.908;2023-01-10T02:01:38;3.92;;;1.67;;
64875;SDS011;51369;49.862;9.908;2023-01-10T02:04:16;4.78;;;2.00;;
64875;SDS011;51369;49.862;9.908;2023-01-10T02:06:45;5.53;;;2.15;;
64875;SDS011;51369;49.862;9.908;2023-01-10T02:09:19;2.42;;;1.55;;
64875;SDS011;51369;49.862;9.908;2023-01-10T02:11:49;2.92;;;1.83;;
64875;SDS011;51369;49.862;9.908;2023-01-10T02:14:15;4.32;;;1.92;;
64875;SDS011;51369;49.862;9.908;2023-01-10T02:16:41;4.07;;;2.83;;
64875;SDS011;51369;49.862;9.908;2023-01-10T02:19:10;5.95;;;2.03;;
64875;SDS011;51369;49.862;9.908;2023-01-10T02:33:04;4.55;;;1.70;;
64875;SDS011;51369;49.862;9.908;2023-01-10T02:38:50;2.40;;;1.75;;
64875;SDS011;51369;49.862;9.908;2023-01-10T02:44:03;3.15;;;1.80;;
64875;SDS011;51369;49.862;9.908;2023-01-10T02:46:41;2.13;;;1.83;;
64875;SDS011;51369;49.862;9.908;2023-01-10T02:49:09;6.05;;;2.33;;
64875;SDS011;51369;49.862;9.908;2023-01-10T02:51:35;4.43;;;2.05;;
64875;SDS011;51369;49.862;9.908;2023-01-10T02:54:20;5.85;;;2.20;;
64875;SDS011;51369;49.862;9.908;2023-01-10T03:02:32;4.25;;;2.10;;
64875;SDS011;51369;49.862;9.908;2023-01-10T03:05:10;2.55;;;2.00;;
64875;SDS011;51369;49.862;9.908;2023-01-10T03:08:10;3.67;;;2.60;;
64875;SDS011;51369;49.862;9.908;2023-01-10T03:10:53;3.90;;;1.98;;
64875;SDS011;51369;49.862;9.908;2023-01-10T03:13:26;3.60;;;1.83;;
64875;SDS011;51369;49.862;9.908;2023-01-10T03:15:58;3.63;;;2.00;;
64875;SDS011;51369;49.862;9.908;2023-01-10T03:18:31;3.67;;;2.10;;
64875;SDS011;51369;49.862;9.908;2023-01-10T03:21:17;4.20;;;2.22;;
64875;SDS011;51369;49.862;9.908;2023-01-10T03:23:45;4.90;;;1.88;;
64875;SDS011;51369;49.862;9.908;2023-01-10T03:26:13;3.67;;;2.45;;
64875;SDS011;51369;49.862;9.908;2023-01-10T03:28:43;10.75;;;2.35;;
64875;SDS011;51369;49.862;9.908;2023-01-10T03:31:14;6.38;;;1.60;;
64875;SDS011;51369;49.862;9.908;2023-01-10T03:33:42;4.85;;;2.00;;
64875;SDS011;51369;49.862;9.908;2023-01-10T03:38:55;3.10;;;2.25;;
64875;SDS011;51369;49.862;9.908;2023-01-10T03:44:28;5.65;;;2.00;;
64875;SDS011;51369;49.862;9.908;2023-01-10T03:49:43;2.67;;;2.08;;
64875;SDS011;51369;49.862;9.908;2023-01-10T03:52:13;8.80;;;2.10;;
64875;SDS011;51369;49.862;9.908;2023-01-10T03:54:41;8.00;;;2.28;;
64875;SDS011;51369;49.862;9.908;2023-01-10T03:57:08;4.97;;;2.33;;
64875;SDS011;51369;49.862;9.908;2023-01-10T03:59:40;7.03;;;2.30;;
64875;SDS011;51369;49.862;9.908;2023-01-10T04:02:05;5.28;;;2.30;;
64875;SDS011;51369;49.862;9.908;2023-01-10T04:04:31;7.00;;;2.05;;
64875;SDS011;51369;49.862;9.908;2023-01-10T04:06:56;3.35;;;2.05;;
64875;SDS011;51369;49.862;9.908;2023-01-10T04:09:22;5.97;;;2.08;;
64875;SDS011;51369;49.862;9.908;2023-01-10T04:11:47;4.05;;;2.17;;
64875;SDS011;51369;49.862;9.908;2023-01-10T04:14:12;3.78;;;2.00;;
64875;SDS011;51369;49.862;9.908;2023-01-10T04:16:38;5.57;;;2.45;;
64875;SDS011;51369;49.862;9.908;2023-01-10T04:19:03;7.13;;;2.20;;
64875;SDS011;51369;49.862;9.908;2023-01-10T04:21:29;5.00;;;2.25;;
64875;SDS011;51369;49.862;9.908;2023-01-10T04:23:54;6.70;;;2.17;;
64875;SDS011;51369;49.862;9.908;2023-01-10T04:26:19;5.82;;;2.28;;
64875;SDS011;51369;49.862;9.908;2023-01-10T04:28:44;7.53;;;2.50;;
64875;SDS011;51369;49.862;9.908;2023-01-10T04:31:10;5.25;;;2.47;;
64875;SDS011;51369;49.862;9.908;2023-01-10T04:33:35;5.03;;;2.03;;
64875;SDS011;51369;49.862;9.908;2023-01-10T04:36:03;7.05;;;2.33;;
64875;SDS011;51369;49.862;9.908;2023-01-10T04:38:28;8.00;;;2.30;;
64875;SDS011;51369;49.862;9.908;2023-01-10T04:40:54;3.75;;;2.22;;
64875;SDS011;51369;49.862;9.908;2023-01-10T04:43:20;6.50;;;2.58;;
64875;SDS011;51369;49.862;9.908;2023-01-10T04:45:46;7.03;;;2.80;;
64875;SDS011;51369;49.862;9.908;2023-01-10T04:48:11;6.30;;;2.38;;
64875;SDS011;51369;49.862;9.908;2023-01-10T04:50:37;9.13;;;2.17;;
64875;SDS011;51369;49.862;9.908;2023-01-10T04:53:02;6.18;;;2.67;;
64875;SDS011;51369;49.862;9.908;2023-01-10T04:55:27;6.90;;;2.33;;
64875;SDS011;51369;49.862;9.908;2023-01-10T04:57:52;6.45;;;2.28;;
64875;SDS011;51369;49.862;9.908;2023-01-10T05:00:18;3.58;;;2.03;;
64875;SDS011;51369;49.862;9.908;2023-01-10T05:02:43;8.27;;;2.40;;
64875;SDS011;51369;49.862;9.908;2023-01-10T05:05:09;5.93;;;2.30;;
64875;SDS011;51369;49.862;9.908;2023-01-10T05:07:36;3.85;;;1.73;;
64875;SDS011;51369;49.862;9.908;2023-01-10T05:10:03;2.85;;;2.00;;
64875;SDS011;51369;49.862;9.908;2023-01-10T05:12:29;5.07;;;1.58;;
64875;SDS011;51369;49.862;9.908;2023-01-10T05:14:54;3.58;;;1.90;;
64875;SDS011;51369;49.862;9.908;2023-01-10T05:17:19;5.47;;;2.03;;
64875;SDS011;51369;49.862;9.908;2023-01-10T05:19:45;4.72;;;2.05;;
64875;SDS011;51369;49.862;9.908;2023-01-10T05:22:10;3.67;;;1.92;;
64875;SDS011;51369;49.862;9.908;2023-01-10T05:24:35;9.23;;;1.88;;
64875;SDS011;51369;49.862;9.908;2023-01-10T05:27:01;2.55;;;1.92;;
64875;SDS011;51369;49.862;9.908;2023-01-10T05:29:26;3.03;;;1.92;;
64875;SDS011;51369;49.862;9.908;2023-01-10T05:31:51;11.00;;;2.25;;
64875;SDS011;51369;49.862;9.908;2023-01-10T05:34:18;7.88;;;1.80;;
64875;SDS011;51369;49.862;9.908;2023-01-10T05:36:43;7.75;;;2.00;;
64875;SDS011;51369;49.862;9.908;2023-01-10T05:39:08;6.68;;;1.67;;
64875;SDS011;51369;49.862;9.908;2023-01-10T05:41:34;3.67;;;1.50;;
64875;SDS011;51369;49.862;9.908;2023-01-10T05:43:59;4.18;;;2.20;;
64875;SDS011;51369;49.862;9.908;2023-01-10T05:46:24;5.68;;;1.90;;
64875;SDS011;51369;49.862;9.908;2023-01-10T05:48:53;5.25;;;1.67;;
64875;SDS011;51369;49.862;9.908;2023-01-10T05:51:18;7.22;;;2.10;;
64875;SDS011;51369;49.862;9.908;2023-01-10T05:53:43;7.38;;;1.80;;
64875;SDS011;51369;49.862;9.908;2023-01-10T05:56:08;5.00;;;1.85;;
64875;SDS011;51369;49.862;9.908;2023-01-10T05:58:34;4.05;;;1.40;;
64875;SDS011;51369;49.862;9.908;2023-01-10T06:01:00;4.97;;;1.85;;
64875;SDS011;51369;49.862;9.908;2023-01-10T06:03:25;10.55;;;1.70;;
64875;SDS011;51369;49.862;9.908;2023-01-10T06:05:51;5.38;;;1.90;;
64875;SDS011;51369;49.862;9.908;2023-01-10T06:08:18;5.88;;;1.92;;
64875;SDS011;51369;49.862;9.908;2023-01-10T06:10:44;10.25;;;2.05;;
64875;SDS011;51369;49.862;9.908;2023-01-10T06:13:09;8.40;;;2.00;;
64875;SDS011;51369;49.862;9.908;2023-01-10T06:15:36;8.18;;;1.90;;
64875;SDS011;51369;49.862;9.908;2023-01-10T06:18:01;6.07;;;2.00;;
64875;SDS011;51369;49.862;9.908;2023-01-10T06:20:27;5.97;;;1.90;;
64875;SDS011;51369;49.862;9.908;2023-01-10T06:22:52;8.75;;;2.30;;
64875;SDS011;51369;49.862;9.908;2023-01-10T06:25:18;5.72;;;2.10;;
64875;SDS011;51369;49.862;9.908;2023-01-10T06:27:43;5.75;;;2.10;;
64875;SDS011;51369;49.862;9.908;2023-01-10T06:30:10;6.45;;;2.25;;
64875;SDS011;51369;49.862;9.908;2023-01-10T06:32:36;8.73;;;2.53;;
64875;SDS011;51369;49.862;9.908;2023-01-10T06:35:02;10.98;;;2.15;;
64875;SDS011;51369;49.862;9.908;2023-01-10T06:37:28;10.68;;;2.10;;
64875;SDS011;51369;49.862;9.908;2023-01-10T06:39:53;9.52;;;2.50;;
64875;SDS011;51369;49.862;9.908;2023-01-10T06:42:19;4.85;;;2.00;;
64875;SDS011;51369;49.862;9.908;2023-01-10T06:44:44;10.48;;;2.90;;
64875;SDS011;51369;49.862;9.908;2023-01-10T06:47:10;5.65;;;2.13;;
64875;SDS011;51369;49.862;9.908;2023-01-10T06:49:35;5.57;;;2.70;;
64875;SDS011;51369;49.862;9.908;2023-01-10T06:52:01;11.80;;;2.90;;
64875;SDS011;51369;49.862;9.908;2023-01-10T06:54:27;8.73;;;2.35;;
64875;SDS011;51369;49.862;9.908;2023-01-10T06:56:53;4.35;;;1.83;;
64875;SDS011;51369;49.862;9.908;2023-01-10T06:59:18;9.18;;;2.38;;
64875;SDS011;51369;49.862;9.908;2023-01-10T07:01:44;10.43;;;2.40;;
64875;SDS011;51369;49.862;9.908;2023-01-10T07:04:09;6.28;;;2.78;;
64875;SDS011;51369;49.862;9.908;2023-01-10T07:06:35;10.98;;;2.70;;
64875;SDS011;51369;49.862;9.908;2023-01-10T07:09:04;6.97;;;2.33;;
64875;SDS011;51369;49.862;9.908;2023-01-10T07:11:31;8.70;;;2.70;;
64875;SDS011;51369;49.862;9.908;2023-01-10T07:13:58;5.35;;;2.33;;
64875;SDS011;51369;49.862;9.908;2023-01-10T07:16:24;7.53;;;2.10;;
64875;SDS011;51369;49.862;9.908;2023-01-10T07:18:50;10.45;;;2.20;;
64875;SDS011;51369;49.862;9.908;2023-01-10T07:21:15;6.70;;;2.60;;
64875;SDS011;51369;49.862;9.908;2023-01-10T07:23:42;8.02;;;2.47;;
64875;SDS011;51369;49.862;9.908;2023-01-10T07:26:08;12.15;;;2.90;;
64875;SDS011;51369;49.862;9.908;2023-01-10T07:28:35;10.00;;;2.65;;
64875;SDS011;51369;49.862;9.908;2023-01-10T07:31:01;10.23;;;2.50;;
64875;SDS011;51369;49.862;9.908;2023-01-10T07:33:28;8.13;;;2.50;;
64875;SDS011;51369;49.862;9.908;2023-01-10T07:35:54;6.82;;;2.55;;
64875;SDS011;51369;49.862;9.908;2023-01-10T07:38:19;7.03;;;2.28;;
64875;SDS011;51369;49.862;9.908;2023-01-10T07:40:45;8.52;;;2.30;;
64875;SDS011;51369;49.862;9.908;2023-01-10T07:43:10;11.68;;;4.10;;
64875;SDS011;51369;49.862;9.908;2023-01-10T07:45:35;6.80;;;2.60;;
64875;SDS011;51369;49.862;9.908;2023-01-10T07:48:02;8.52;;;2.72;;
64875;SDS011;51369;49.862;9.908;2023-01-10T07:50:29;9.50;;;2.65;;
64875;SDS011;51369;49.862;9.908;2023-01-10T07:52:57;6.07;;;2.38;;
64875;SDS011;51369;49.862;9.908;2023-01-10T07:55:24;9.18;;;2.75;;
64875;SDS011;51369;49.862;9.908;2023-01-10T07:57:49;15.20;;;2.53;;
64875;SDS011;51369;49.862;9.908;2023-01-10T08:00:15;7.43;;;2.42;;
64875;SDS011;51369;49.862;9.908;2023-01-10T08:02:41;7.93;;;2.33;;
64875;SDS011;51369;49.862;9.908;2023-01-10T08:05:07;5.03;;;2.17;;
64875;SDS011;51369;49.862;9.908;2023-01-10T08:07:32;10.05;;;2.63;;
64875;SDS011;51369;49.862;9.908;2023-01-10T08:09:58;6.90;;;2.75;;
64875;SDS011;51369;49.862;9.908;2023-01-10T08:12:23;10.63;;;2.30;;
64875;SDS011;51369;49.862;9.908;2023-01-10T08:14:49;4.63;;;2.35;;
64875;SDS011;51369;49.862;9.908;2023-01-10T08:17:15;8.43;;;2.40;;
64875;SDS011;51369;49.862;9.908;2023-01-10T08:19:41;9.63;;;2.35;;
64875;SDS011;51369;49.862;9.908;2023-01-10T08:22:06;11.27;;;2.53;;
64875;SDS011;51369;49.862;9.908;2023-01-10T08:24:33;9.88;;;2.70;;
64875;SDS011;51369;49.862;9.908;2023-01-10T08:26:58;8.02;;;2.45;;
64875;SDS011;51369;49.862;9.908;2023-01-10T08:29:23;13.60;;;2.72;;
64875;SDS011;51369;49.862;9.908;2023-01-10T08:31:49;9.32;;;3.30;;
64875;SDS011;51369;49.862;9.908;2023-01-10T08:34:15;6.95;;;2.20;;
64875;SDS011;51369;49.862;9.908;2023-01-10T08:36:40;7.70;;;2.30;;
64875;SDS011;51369;49.862;9.908;2023-01-10T08:39:06;8.68;;;2.15;;
64875;SDS011;51369;49.862;9.908;2023-01-10T08:41:31;11.80;;;1.95;;
64875;SDS011;51369;49.862;9.908;2023-01-10T08:43:56;8.55;;;1.95;;
64875;SDS011;51369;49.862;9.908;2023-01-10T08:46:22;8.52;;;1.80;;
64875;SDS011;51369;49.862;9.908;2023-01-10T08:48:47;5.95;;;2.15;;
64875;SDS011;51369;49.862;9.908;2023-01-10T08:51:14;7.80;;;2.33;;
64875;SDS011;51369;49.862;9.908;2023-01-10T08:53:40;6.93;;;1.80;;
64875;SDS011;51369;49.862;9.908;2023-01-10T08:56:06;8.48;;;2.00;;
64875;SDS011;51369;49.862;9.908;2023-01-10T08:58:33;7.00;;;1.75;;
64875;SDS011;51369;49.862;9.908;2023-01-10T09:00:58;8.52;;;2.25;;
64875;SDS011;51369;49.862;9.908;2023-01-10T09:03:27;9.77;;;2.30;;
64875;SDS011;51369;49.862;9.908;2023-01-10T09:05:52;9.30;;;2.20;;
64875;SDS011;51369;49.862;9.908;2023-01-10T09:08:18;6.43;;;2.13;;
64875;SDS011;51369;49.862;9.908;2023-01-10T09:10:43;12.25;;;2.40;;
64875;SDS011;51369;49.862;9.908;2023-01-10T09:13:09;5.18;;;2.33;;
64875;SDS011;51369;49.862;9.908;2023-01-10T09:15:35;7.53;;;2.17;;
64875;SDS011;51369;49.862;9.908;2023-01-10T09:18:03;8.63;;;2.50;;
64875;SDS011;51369;49.862;9.908;2023-01-10T09:20:31;8.55;;;2.00;;
64875;SDS011;51369;49.862;9.908;2023-01-10T09:23:03;12.40;;;3.30;;
64875;SDS011;51369;49.862;9.908;2023-01-10T09:25:30;8.35;;;1.80;;
64875;SDS011;51369;49.862;9.908;2023-01-10T09:27:57;9.05;;;2.28;;
64875;SDS011;51369;49.862;9.908;2023-01-10T09:30:24;10.13;;;2.22;;
64875;SDS011;51369;49.862;9.908;2023-01-10T09:32:50;6.35;;;2.00;;
64875;SDS011;51369;49.862;9.908;2023-01-10T09:35:16;12.43;;;1.80;;
64875;SDS011;51369;49.862;9.908;2023-01-10T09:37:42;13.43;;;2.22;;
64875;SDS011;51369;49.862;9.908;2023-01-10T09:40:08;6.22;;;1.83;;
64875;SDS011;51369;49.862;9.908;2023-01-10T09:42:50;12.65;;;2.60;;
64875;SDS011;51369;49.862;9.908;2023-01-10T09:45:34;5.75;;;1.85;;
64875;SDS011;51369;49.862;9.908;2023-01-10T09:48:21;5.88;;;1.95;;
64875;SDS011;51369;49.862;9.908;2023-01-10T09:50:59;9.80;;;2.28;;
64875;SDS011;51369;49.862;9.908;2023-01-10T09:56:13;7.97;;;1.85;;
64875;SDS011;51369;49.862;9.908;2023-01-10T09:58:40;8.00;;;2.03;;
64875;SDS011;51369;49.862;9.908;2023-01-10T10:01:08;13.10;;;2.20;;
64875;SDS011;51369;49.862;9.908;2023-01-10T10:03:47;9.23;;;2.00;;
64875;SDS011;51369;49.862;9.908;2023-01-10T10:06:36;9.48;;;2.08;;
64875;SDS011;51369;49.862;9.908;2023-01-10T10:09:02;6.32;;;2.05;;
64875;SDS011;51369;49.862;9.908;2023-01-10T10:11:32;12.85;;;2.65;;
64875;SDS011;51369;49.862;9.908;2023-01-10T10:20:05;10.63;;;2.47;;
64875;SDS011;51369;49.862;9.908;2023-01-10T10:22:45;8.70;;;2.30;;
64875;SDS011;51369;49.862;9.908;2023-01-10T10:25:33;7.55;;;2.13;;
64875;SDS011;51369;49.862;9.908;2023-01-10T10:28:08;13.57;;;2.92;;
64875;SDS011;51369;49.862;9.908;2023-01-10T10:31:00;10.90;;;2.55;;
64875;SDS011;51369;49.862;9.908;2023-01-10T10:33:43;14.63;;;3.13;;
64875;SDS011;51369;49.862;9.908;2023-01-10T10:36:37;11.00;;;2.75;;
64875;SDS011;51369;49.862;9.908;2023-01-10T10:39:09;9.93;;;2.67;;
64875;SDS011;51369;49.862;9.908;2023-01-10T10:41:41;15.00;;;3.08;;
64875;SDS011;51369;49.862;9.908;2023-01-10T10:47:10;9.60;;;2.88;;
64875;SDS011;51369;49.862;9.908;2023-01-10T10:49:44;10.20;;;3.30;;
64875;SDS011;51369;49.862;9.908;2023-01-10T10:52:16;16.88;;;3.00;;
64875;SDS011;51369;49.862;9.908;2023-01-10T10:54:47;18.27;;;3.30;;
64875;SDS011;51369;49.862;9.908;2023-01-10T10:57:12;11.75;;;2.65;;
64875;SDS011;51369;49.862;9.908;2023-01-10T10:59:38;12.85;;;2.97;;
64875;SDS011;51369;49.862;9.908;2023-01-10T11:02:15;12.50;;;2.45;;
64875;SDS011;51369;49.862;9.908;2023-01-10T11:04:48;13.35;;;2.85;;
64875;SDS011;51369;49.862;9.908;2023-01-10T11:07:16;8.25;;;2.20;;
64875;SDS011;51369;49.862;9.908;2023-01-10T11:09:42;13.52;;;2.88;;
64875;SDS011;51369;49.862;9.908;2023-01-10T11:12:16;11.25;;;2.60;;
64875;SDS011;51369;49.862;9.908;2023-01-10T11:14:44;10.25;;;2.45;;
64875;SDS011;51369;49.862;9.908;2023-01-10T11:22:48;11.30;;;2.25;;
64875;SDS011;51369;49.862;9.908;2023-01-10T11:25:18;11.40;;;2.90;;
64875;SDS011;51369;49.862;9.908;2023-01-10T11:27:48;6.95;;;2.10;;
64875;SDS011;51369;49.862;9.908;2023-01-10T11:30:32;11.65;;;2.17;;
64875;SDS011;51369;49.862;9.908;2023-01-10T11:33:01;6.68;;;1.92;;
64875;SDS011;51369;49.862;9.908;2023-01-10T11:35:33;10.77;;;3.20;;
64875;SDS011;51369;49.862;9.908;2023-01-10T11:40:28;11.15;;;2.38;;
64875;SDS011;51369;49.862;9.908;2023-01-10T11:42:56;7.68;;;2.08;;
64875;SDS011;51369;49.862;9.908;2023-01-10T11:45:26;11.70;;;2.42;;
64875;SDS011;51369;49.862;9.908;2023-01-10T11:50:40;13.90;;;2.17;;
64875;SDS011;51369;49.862;9.908;2023-01-10T11:53:21;10.60;;;2.47;;
64875;SDS011;51369;49.862;9.908;2023-01-10T11:56:03;7.63;;;2.22;;
64875;SDS011;51369;49.862;9.908;2023-01-10T11:58:31;10.95;;;4.22;;
64875;SDS011;51369;49.862;9.908;2023-01-10T12:00:59;10.93;;;2.05;;
64875;SDS011;51369;49.862;9.908;2023-01-10T12:03:26;12.85;;;1.70;;
64875;SDS011;51369;49.862;9.908;2023-01-10T12:05:59;9.98;;;2.17;;
64875;SDS011;51369;49.862;9.908;2023-01-10T12:08:32;16.52;;;2.28;;
64875;SDS011;51369;49.862;9.908;2023-01-10T12:11:01;11.95;;;2.13;;
64875;SDS011;51369;49.862;9.908;2023-01-10T12:13:29;12.90;;;2.35;;
64875;SDS011;51369;49.862;9.908;2023-01-10T12:16:20;14.23;;;2.33;;
64875;SDS011;51369;49.862;9.908;2023-01-10T12:18:48;16.80;;;2.25;;
64875;SDS011;51369;49.862;9.908;2023-01-10T12:21:18;8.73;;;2.28;;
64875;SDS011;51369;49.862;9.908;2023-01-10T12:23:47;4.97;;;1.67;;
64875;SDS011;51369;49.862;9.908;2023-01-10T12:26:15;7.70;;;2.05;;
64875;SDS011;51369;49.862;9.908;2023-01-10T12:28:43;11.82;;;2.25;;
64875;SDS011;51369;49.862;9.908;2023-01-10T12:31:15;13.88;;;2.55;;
64875;SDS011;51369;49.862;9.908;2023-01-10T12:33:43;16.83;;;2.55;;
64875;SDS011;51369;49.862;9.908;2023-01-10T12:41:46;11.40;;;2.33;;
64875;SDS011;51369;49.862;9.908;2023-01-10T12:44:36;7.70;;;2.42;;
64875;SDS011;51369;49.862;9.908;2023-01-10T12:47:16;9.07;;;2.95;;
64875;SDS011;51369;49.862;9.908;2023-01-10T12:50:05;10.68;;;2.85;;
64875;SDS011;51369;49.862;9.908;2023-01-10T12:55:17;12.17;;;2.70;;
64875;SDS011;51369;49.862;9.908;2023-01-10T12:57:47;11.60;;;3.53;;
64875;SDS011;51369;49.862;9.908;2023-01-10T13:00:19;8.77;;;2.42;;
64875;SDS011;51369;49.862;9.908;2023-01-10T13:03:09;13.30;;;2.65;;
64875;SDS011;51369;49.862;9.908;2023-01-10T13:05:39;8.68;;;2.20;;
64875;SDS011;51369;49.862;9.908;2023-01-10T13:08:06;19.25;;;2.55;;
64875;SDS011;51369;49.862;9.908;2023-01-10T13:10:37;9.35;;;2.42;;
64875;SDS011;51369;49.862;9.908;2023-01-10T13:13:14;10.35;;;2.20;;
64875;SDS011;51369;49.862;9.908;2023-01-10T13:15:47;13.68;;;2.75;;
64875;SDS011;51369;49.862;9.908;2023-01-10T13:18:27;12.55;;;2.47;;
64875;SDS011;51369;49.862;9.908;2023-01-10T13:21:07;11.48;;;2.55;;
64875;SDS011;51369;49.862;9.908;2023-01-10T13:23:47;13.45;;;2.83;;
64875;SDS011;51369;49.862;9.908;2023-01-10T13:26:14;14.20;;;3.20;;
64875;SDS011;51369;49.862;9.908;2023-01-10T13:28:42;13.85;;;2.72;;
64875;SDS011;51369;49.862;9.908;2023-01-10T13:31:25;11.43;;;2.33;;
64875;SDS011;51369;49.862;9.908;2023-01-10T13:33:56;13.65;;;2.30;;
64875;SDS011;51369;49.862;9.908;2023-01-10T13:36:29;6.53;;;1.92;;
64875;SDS011;51369;49.862;9.908;2023-01-10T13:39:02;12.63;;;2.60;;
64875;SDS011;51369;49.862;9.908;2023-01-10T13:55:28;14.27;;;3.08;;
64875;SDS011;51369;49.862;9.908;2023-01-10T14:06:01;10.05;;;2.35;;
64875;SDS011;51369;49.862;9.908;2023-01-10T14:08:28;13.07;;;3.03;;
64875;SDS011;51369;49.862;9.908;2023-01-10T14:11:08;14.20;;;2.72;;
64875;SDS011;51369;49.862;9.908;2023-01-10T14:13:36;8.10;;;2.53;;
64875;SDS011;51369;49.862;9.908;2023-01-10T14:16:25;13.80;;;2.47;;
64875;SDS011;51369;49.862;9.908;2023-01-10T14:18:51;16.20;;;2.70;;
64875;SDS011;51369;49.862;9.908;2023-01-10T14:21:23;14.68;;;2.58;;
64875;SDS011;51369;49.862;9.908;2023-01-10T14:23:51;8.70;;;2.20;;
64875;SDS011;51369;49.862;9.908;2023-01-10T14:28:58;19.83;;;2.78;;
64875;SDS011;51369;49.862;9.908;2023-01-10T14:31:26;12.32;;;2.45;;
64875;SDS011;51369;49.862;9.908;2023-01-10T14:33:52;11.07;;;2.50;;
64875;SDS011;51369;49.862;9.908;2023-01-10T14:36:19;16.52;;;2.38;;
64875;SDS011;51369;49.862;9.908;2023-01-10T14:38:51;14.88;;;2.65;;
64875;SDS011;51369;49.862;9.908;2023-01-10T14:41:22;17.27;;;3.10;;
64875;SDS011;51369;49.862;9.908;2023-01-10T14:43:53;17.30;;;2.80;;
64875;SDS011;51369;49.862;9.908;2023-01-10T14:46:24;11.05;;;2.58;;
64875;SDS011;51369;49.862;9.908;2023-01-10T14:48:56;16.50;;;2.88;;
64875;SDS011;51369;49.862;9.908;2023-01-10T14:51:25;18.65;;;3.17;;
64875;SDS011;51369;49.862;9.908;2023-01-10T14:53:55;9.30;;;2.80;;
64875;SDS011;51369;49.862;9.908;2023-01-10T14:56:23;10.32;;;3.03;;
64875;SDS011;51369;49.862;9.908;2023-01-10T14:58:51;18.85;;;3.08;;
64875;SDS011;51369;49.862;9.908;2023-01-10T15:01:19;10.13;;;2.42;;
64875;SDS011;51369;49.862;9.908;2023-01-10T15:03:47;11.48;;;2.75;;
64875;SDS011;51369;49.862;9.908;2023-01-10T15:06:13;23.58;;;3.97;;
64875;SDS011;51369;49.862;9.908;2023-01-10T15:08:38;12.68;;;2.45;;
64875;SDS011;51369;49.862;9.908;2023-01-10T15:11:04;10.60;;;3.03;;
64875;SDS011;51369;49.862;9.908;2023-01-10T15:13:47;18.95;;;3.20;;
64875;SDS011;51369;49.862;9.908;2023-01-10T15:16:17;14.43;;;2.83;;
64875;SDS011;51369;49.862;9.908;2023-01-10T15:18:45;17.98;;;2.40;;
64875;SDS011;51369;49.862;9.908;2023-01-10T15:21:13;14.10;;;2.25;;
64875;SDS011;51369;49.862;9.908;2023-01-10T15:23:40;20.25;;;3.65;;
64875;SDS011;51369;49.862;9.908;2023-01-10T15:26:08;12.02;;;2.45;;
64875;SDS011;51369;49.862;9.908;2023-01-10T15:28:40;17.50;;;2.72;;
64875;SDS011;51369;49.862;9.908;2023-01-10T15:31:07;19.13;;;2.97;;
64875;SDS011;51369;49.862;9.908;2023-01-10T15:33:35;13.50;;;3.10;;
64875;SDS011;51369;49.862;9.908;2023-01-10T15:36:05;16.38;;;2.65;;
64875;SDS011;51369;49.862;9.908;2023-01-10T15:38:37;13.68;;;2.65;;
64875;SDS011;51369;49.862;9.908;2023-01-10T15:41:08;15.52;;;3.13;;
64875;SDS011;51369;49.862;9.908;2023-01-10T15:43:40;8.23;;;2.20;;
64875;SDS011;51369;49.862;9.908;2023-01-10T15:46:05;11.95;;;2.60;;
64875;SDS011;51369;49.862;9.908;2023-01-10T15:48:52;12.77;;;2.50;;
64875;SDS011;51369;49.862;9.908;2023-01-10T15:51:39;17.35;;;2.80;;
64875;SDS011;51369;49.862;9.908;2023-01-10T15:54:27;16.00;;;3.20;;
64875;SDS011;51369;49.862;9.908;2023-01-10T15:56:55;20.98;;;4.40;;
64875;SDS011;51369;49.862;9.908;2023-01-10T15:59:29;16.80;;;2.83;;
64875;SDS011;51369;49.862;9.908;2023-01-10T16:04:25;12.90;;;2.63;;
64875;SDS011;51369;49.862;9.908;2023-01-10T16:06:52;17.05;;;2.60;;
64875;SDS011;51369;49.862;9.908;2023-01-10T16:09:28;12.43;;;2.92;;
64875;SDS011;51369;49.862;9.908;2023-01-10T16:11:55;18.63;;;3.20;;
64875;SDS011;51369;49.862;9.908;2023-01-10T16:14:39;21.40;;;4.82;;
64875;SDS011;51369;49.862;9.908;2023-01-10T16:17:04;17.02;;;3.35;;
64875;SDS011;51369;49.862;9.908;2023-01-10T16:19:30;13.95;;;3.03;;
64875;SDS011;51369;49.862;9.908;2023-01-10T16:21:56;12.05;;;2.95;;
64875;SDS011;51369;49.862;9.908;2023-01-10T16:24:24;13.07;;;2.97;;